sensor_id;sensor_type;location;lat;lon;timestamp;P1;durP1;ratioP1;P2;durP2;ratioP2
27305;SDS011;14792;50.886;6.468;2023-02-22T00:02:37;568.97;;;65.42;;
27305;SDS011;14792;50.886;6.468;2023-02-22T00:05:39;622.73;;;71.37;;
27305;SDS011;14792;50.886;6.468;2023-02-22T00:08:40;493.97;;;62.73;;
27305;SDS011;14792;50.886;6.468;2023-02-22T00:11:45;490.62;;;66.92;;
27305;SDS011;14792;50.886;6.468;2023-02-22T00:14:46;674.10;;;69.53;;
27305;SDS011;14792;50.886;6.468;2023-02-22T00:17:48;658.33;;;68.80;;
27305;SDS011;14792;50.886;6.468;2023-02-22T00:20:49;589.97;;;68.33;;
27305;SDS011;14792;50.886;6.468;2023-02-22T00:23:51;664.75;;;70.03;;
27305;SDS011;14792;50.886;6.468;2023-02-22T00:26:53;975.25;;;74.05;;
27305;SDS011;14792;50.886;6.468;2023-02-22T00:29:56;667.33;;;69.42;;
27305;SDS011;14792;50.886;6.468;2023-02-22T00:32:58;658.72;;;70.25;;
27305;SDS011;14792;50.886;6.468;2023-02-22T00:36:00;642.80;;;66.70;;
27305;SDS011;14792;50.886;6.468;2023-02-22T00:39:01;777.40;;;68.00;;
27305;SDS011;14792;50.886;6.468;2023-02-22T00:42:03;739.37;;;65.55;;
27305;SDS011;14792;50.886;6.468;2023-02-22T00:45:04;624.70;;;64.32;;
27305;SDS011;14792;50.886;6.468;2023-02-22T00:48:06;536.85;;;60.88;;
27305;SDS011;14792;50.886;6.468;2023-02-22T00:51:08;354.32;;;56.75;;
27305;SDS011;14792;50.886;6.468;2023-02-22T00:54:09;811.30;;;69.12;;
27305;SDS011;14792;50.886;6.468;2023-02-22T00:57:11;504.00;;;60.63;;
27305;SDS011;14792;50.886;6.468;2023-02-22T01:00:23;504.32;;;58.48;;
27305;SDS011;14792;50.886;6.468;2023-02-22T01:03:20;507.27;;;60.60;;
27305;SDS011;14792;50.886;6.468;2023-02-22T01:06:21;525.05;;;62.20;;
27305;SDS011;14792;50.886;6.468;2023-02-22T01:09:23;813.35;;;67.22;;
27305;SDS011;14792;50.886;6.468;2023-02-22T01:12:25;939.98;;;64.95;;
27305;SDS011;14792;50.886;6.468;2023-02-22T01:15:27;884.52;;;61.98;;
27305;SDS011;14792;50.886;6.468;2023-02-22T01:18:28;973.05;;;64.07;;
27305;SDS011;14792;50.886;6.468;2023-02-22T01:21:29;594.13;;;58.40;;
27305;SDS011;14792;50.886;6.468;2023-02-22T01:24:31;653.80;;;60.25;;
27305;SDS011;14792;50.886;6.468;2023-02-22T01:27:33;628.67;;;61.65;;
27305;SDS011;14792;50.886;6.468;2023-02-22T01:30:34;1019.40;;;65.22;;
27305;SDS011;14792;50.886;6.468;2023-02-22T01:33:36;1069.67;;;64.95;;
27305;SDS011;14792;50.886;6.468;2023-02-22T01:36:37;766.65;;;60.58;;
27305;SDS011;14792;50.886;6.468;2023-02-22T01:39:39;380.60;;;53.40;;
27305;SDS011;14792;50.886;6.468;2023-02-22T01:42:41;1246.28;;;67.17;;
27305;SDS011;14792;50.886;6.468;2023-02-22T01:45:44;388.48;;;59.40;;
27305;SDS011;14792;50.886;6.468;2023-02-22T01:48:45;1136.60;;;69.35;;
27305;SDS011;14792;50.886;6.468;2023-02-22T01:51:46;674.23;;;57.08;;
27305;SDS011;14792;50.886;6.468;2023-02-22T01:54:48;903.65;;;59.45;;
27305;SDS011;14792;50.886;6.468;2023-02-22T01:57:48;564.58;;;59.10;;
27305;SDS011;14792;50.886;6.468;2023-02-22T02:00:50;627.88;;;54.53;;
27305;SDS011;14792;50.886;6.468;2023-02-22T02:03:53;713.48;;;55.78;;
27305;SDS011;14792;50.886;6.468;2023-02-22T02:06:54;816.00;;;58.60;;
27305;SDS011;14792;50.886;6.468;2023-02-22T02:09:58;989.52;;;57.83;;
27305;SDS011;14792;50.886;6.468;2023-02-22T02:12:59;1211.38;;;63.48;;
27305;SDS011;14792;50.886;6.468;2023-02-22T02:16:01;1531.43;;;69.70;;
27305;SDS011;14792;50.886;6.468;2023-02-22T02:19:02;1254.43;;;64.22;;
27305;SDS011;14792;50.886;6.468;2023-02-22T02:25:23;1252.18;;;64.53;;
27305;SDS011;14792;50.886;6.468;2023-02-22T02:31:53;806.17;;;56.20;;
27305;SDS011;14792;50.886;6.468;2023-02-22T02:35:03;621.75;;;54.15;;
27305;SDS011;14792;50.886;6.468;2023-02-22T02:41:29;637.42;;;48.78;;
27305;SDS011;14792;50.886;6.468;2023-02-22T02:44:36;1067.25;;;57.43;;
27305;SDS011;14792;50.886;6.468;2023-02-22T02:47:35;1090.33;;;64.20;;
27305;SDS011;14792;50.886;6.468;2023-02-22T02:50:54;929.45;;;58.87;;
27305;SDS011;14792;50.886;6.468;2023-02-22T02:53:46;882.80;;;57.48;;
27305;SDS011;14792;50.886;6.468;2023-02-22T02:56:47;219.40;;;35.45;;
27305;SDS011;14792;50.886;6.468;2023-02-22T02:59:48;1307.08;;;63.45;;
27305;SDS011;14792;50.886;6.468;2023-02-22T03:03:08;848.05;;;61.48;;
27305;SDS011;14792;50.886;6.468;2023-02-22T03:09:29;1035.10;;;64.37;;
27305;SDS011;14792;50.886;6.468;2023-02-22T03:13:15;549.30;;;45.98;;
27305;SDS011;14792;50.886;6.468;2023-02-22T03:15:37;784.27;;;50.28;;
27305;SDS011;14792;50.886;6.468;2023-02-22T03:18:49;567.20;;;48.38;;
27305;SDS011;14792;50.886;6.468;2023-02-22T03:22:01;906.47;;;57.60;;
27305;SDS011;14792;50.886;6.468;2023-02-22T03:25:14;512.08;;;44.05;;
27305;SDS011;14792;50.886;6.468;2023-02-22T03:28:10;598.20;;;46.37;;
27305;SDS011;14792;50.886;6.468;2023-02-22T03:31:16;480.18;;;44.85;;
27305;SDS011;14792;50.886;6.468;2023-02-22T03:34:18;453.98;;;45.38;;
27305;SDS011;14792;50.886;6.468;2023-02-22T03:37:24;430.87;;;39.92;;
27305;SDS011;14792;50.886;6.468;2023-02-22T03:40:27;284.80;;;35.95;;
27305;SDS011;14792;50.886;6.468;2023-02-22T03:43:28;802.75;;;49.13;;
27305;SDS011;14792;50.886;6.468;2023-02-22T03:46:37;477.97;;;43.00;;
27305;SDS011;14792;50.886;6.468;2023-02-22T03:49:41;572.20;;;41.23;;
27305;SDS011;14792;50.886;6.468;2023-02-22T03:52:41;536.33;;;41.88;;
27305;SDS011;14792;50.886;6.468;2023-02-22T03:55:42;825.00;;;52.90;;
27305;SDS011;14792;50.886;6.468;2023-02-22T03:58:44;588.27;;;40.83;;
27305;SDS011;14792;50.886;6.468;2023-02-22T04:01:45;606.83;;;38.95;;
27305;SDS011;14792;50.886;6.468;2023-02-22T04:04:47;728.90;;;40.60;;
27305;SDS011;14792;50.886;6.468;2023-02-22T04:07:49;595.50;;;38.92;;
27305;SDS011;14792;50.886;6.468;2023-02-22T04:10:50;271.32;;;38.08;;
27305;SDS011;14792;50.886;6.468;2023-02-22T04:13:52;676.45;;;44.27;;
27305;SDS011;14792;50.886;6.468;2023-02-22T04:16:53;385.07;;;35.15;;
27305;SDS011;14792;50.886;6.468;2023-02-22T04:19:55;735.75;;;43.42;;
27305;SDS011;14792;50.886;6.468;2023-02-22T04:22:57;991.08;;;52.27;;
27305;SDS011;14792;50.886;6.468;2023-02-22T04:25:58;1119.08;;;51.68;;
27305;SDS011;14792;50.886;6.468;2023-02-22T04:29:00;667.48;;;41.15;;
27305;SDS011;14792;50.886;6.468;2023-02-22T04:32:01;888.00;;;48.75;;
27305;SDS011;14792;50.886;6.468;2023-02-22T04:35:03;989.05;;;53.55;;
27305;SDS011;14792;50.886;6.468;2023-02-22T04:38:05;1041.23;;;54.93;;
27305;SDS011;14792;50.886;6.468;2023-02-22T04:41:06;630.80;;;44.75;;
27305;SDS011;14792;50.886;6.468;2023-02-22T04:44:08;864.25;;;51.60;;
27305;SDS011;14792;50.886;6.468;2023-02-22T04:47:09;706.78;;;44.40;;
27305;SDS011;14792;50.886;6.468;2023-02-22T04:50:11;952.52;;;52.93;;
27305;SDS011;14792;50.886;6.468;2023-02-22T04:53:12;947.87;;;50.60;;
27305;SDS011;14792;50.886;6.468;2023-02-22T04:56:16;822.70;;;46.98;;
27305;SDS011;14792;50.886;6.468;2023-02-22T04:59:18;1139.20;;;54.60;;
27305;SDS011;14792;50.886;6.468;2023-02-22T05:02:20;1169.75;;;52.70;;
27305;SDS011;14792;50.886;6.468;2023-02-22T05:05:21;1325.53;;;56.28;;
27305;SDS011;14792;50.886;6.468;2023-02-22T05:08:23;1259.88;;;55.25;;
27305;SDS011;14792;50.886;6.468;2023-02-22T05:11:25;1007.35;;;50.33;;
27305;SDS011;14792;50.886;6.468;2023-02-22T05:14:26;891.68;;;44.25;;
27305;SDS011;14792;50.886;6.468;2023-02-22T05:17:28;803.95;;;44.48;;
27305;SDS011;14792;50.886;6.468;2023-02-22T05:20:30;768.75;;;44.08;;
27305;SDS011;14792;50.886;6.468;2023-02-22T05:23:31;642.55;;;46.05;;
27305;SDS011;14792;50.886;6.468;2023-02-22T05:26:33;715.38;;;42.78;;
27305;SDS011;14792;50.886;6.468;2023-02-22T05:29:34;782.90;;;44.38;;
27305;SDS011;14792;50.886;6.468;2023-02-22T05:32:36;821.52;;;46.33;;
27305;SDS011;14792;50.886;6.468;2023-02-22T05:35:37;1005.13;;;51.45;;
27305;SDS011;14792;50.886;6.468;2023-02-22T05:38:39;1121.93;;;56.33;;
27305;SDS011;14792;50.886;6.468;2023-02-22T05:41:41;1092.70;;;53.52;;
27305;SDS011;14792;50.886;6.468;2023-02-22T05:44:42;1081.70;;;53.60;;
27305;SDS011;14792;50.886;6.468;2023-02-22T05:47:44;1016.78;;;52.62;;
27305;SDS011;14792;50.886;6.468;2023-02-22T05:50:45;682.55;;;46.05;;
27305;SDS011;14792;50.886;6.468;2023-02-22T05:53:47;912.40;;;48.50;;
27305;SDS011;14792;50.886;6.468;2023-02-22T05:56:49;848.65;;;47.60;;
27305;SDS011;14792;50.886;6.468;2023-02-22T05:59:50;822.45;;;51.80;;
27305;SDS011;14792;50.886;6.468;2023-02-22T06:02:58;1070.72;;;52.53;;
27305;SDS011;14792;50.886;6.468;2023-02-22T06:05:59;950.28;;;47.53;;
27305;SDS011;14792;50.886;6.468;2023-02-22T06:09:01;698.52;;;42.93;;
27305;SDS011;14792;50.886;6.468;2023-02-22T06:12:02;1305.40;;;60.08;;
27305;SDS011;14792;50.886;6.468;2023-02-22T06:15:04;934.60;;;50.58;;
27305;SDS011;14792;50.886;6.468;2023-02-22T06:18:06;1184.30;;;55.05;;
27305;SDS011;14792;50.886;6.468;2023-02-22T06:21:07;1009.00;;;52.55;;
27305;SDS011;14792;50.886;6.468;2023-02-22T06:24:09;994.95;;;49.98;;
27305;SDS011;14792;50.886;6.468;2023-02-22T06:27:10;670.10;;;45.80;;
27305;SDS011;14792;50.886;6.468;2023-02-22T06:30:12;914.65;;;47.13;;
27305;SDS011;14792;50.886;6.468;2023-02-22T06:33:14;599.70;;;41.25;;
27305;SDS011;14792;50.886;6.468;2023-02-22T06:36:16;305.18;;;32.10;;
27305;SDS011;14792;50.886;6.468;2023-02-22T06:39:18;905.25;;;49.80;;
27305;SDS011;14792;50.886;6.468;2023-02-22T06:42:19;1122.20;;;57.73;;
27305;SDS011;14792;50.886;6.468;2023-02-22T06:45:21;652.23;;;42.95;;
27305;SDS011;14792;50.886;6.468;2023-02-22T06:48:23;650.62;;;43.90;;
27305;SDS011;14792;50.886;6.468;2023-02-22T06:51:25;589.35;;;38.80;;
27305;SDS011;14792;50.886;6.468;2023-02-22T06:54:26;757.90;;;45.38;;
27305;SDS011;14792;50.886;6.468;2023-02-22T06:57:27;203.88;;;34.78;;
27305;SDS011;14792;50.886;6.468;2023-02-22T07:00:29;90.35;;;33.23;;
27305;SDS011;14792;50.886;6.468;2023-02-22T07:03:30;108.35;;;32.50;;
27305;SDS011;14792;50.886;6.468;2023-02-22T07:06:32;98.62;;;31.42;;
27305;SDS011;14792;50.886;6.468;2023-02-22T07:09:34;284.62;;;36.73;;
27305;SDS011;14792;50.886;6.468;2023-02-22T07:12:35;142.00;;;31.95;;
27305;SDS011;14792;50.886;6.468;2023-02-22T07:15:37;93.17;;;31.10;;
27305;SDS011;14792;50.886;6.468;2023-02-22T07:18:38;80.55;;;30.15;;
27305;SDS011;14792;50.886;6.468;2023-02-22T07:21:40;85.07;;;32.10;;
27305;SDS011;14792;50.886;6.468;2023-02-22T07:24:42;82.82;;;31.77;;
27305;SDS011;14792;50.886;6.468;2023-02-22T07:27:43;71.45;;;30.20;;
27305;SDS011;14792;50.886;6.468;2023-02-22T07:30:45;57.88;;;27.37;;
27305;SDS011;14792;50.886;6.468;2023-02-22T07:33:46;61.80;;;26.05;;
27305;SDS011;14792;50.886;6.468;2023-02-22T07:36:48;57.20;;;24.95;;
27305;SDS011;14792;50.886;6.468;2023-02-22T07:39:50;46.65;;;23.02;;
27305;SDS011;14792;50.886;6.468;2023-02-22T07:45:56;47.88;;;21.25;;
27305;SDS011;14792;50.886;6.468;2023-02-22T07:48:57;48.00;;;23.70;;
27305;SDS011;14792;50.886;6.468;2023-02-22T07:51:59;47.05;;;22.52;;
27305;SDS011;14792;50.886;6.468;2023-02-22T07:55:00;38.50;;;20.48;;
27305;SDS011;14792;50.886;6.468;2023-02-22T07:58:03;46.37;;;21.93;;
27305;SDS011;14792;50.886;6.468;2023-02-22T08:01:04;38.25;;;21.30;;
27305;SDS011;14792;50.886;6.468;2023-02-22T08:04:06;43.35;;;20.72;;
27305;SDS011;14792;50.886;6.468;2023-02-22T08:07:07;42.40;;;20.32;;
27305;SDS011;14792;50.886;6.468;2023-02-22T08:10:09;37.83;;;20.08;;
27305;SDS011;14792;50.886;6.468;2023-02-22T08:13:10;42.60;;;18.50;;
27305;SDS011;14792;50.886;6.468;2023-02-22T08:16:12;41.50;;;19.77;;
27305;SDS011;14792;50.886;6.468;2023-02-22T08:19:14;35.17;;;18.17;;
27305;SDS011;14792;50.886;6.468;2023-02-22T08:22:15;47.38;;;19.23;;
27305;SDS011;14792;50.886;6.468;2023-02-22T08:25:17;48.02;;;18.20;;
27305;SDS011;14792;50.886;6.468;2023-02-22T08:28:20;43.85;;;18.60;;
27305;SDS011;14792;50.886;6.468;2023-02-22T08:31:20;45.98;;;19.00;;
27305;SDS011;14792;50.886;6.468;2023-02-22T08:34:22;49.65;;;18.15;;
27305;SDS011;14792;50.886;6.468;2023-02-22T08:37:23;38.48;;;17.32;;
27305;SDS011;14792;50.886;6.468;2023-02-22T08:40:25;31.57;;;16.73;;
27305;SDS011;14792;50.886;6.468;2023-02-22T08:43:26;38.25;;;15.60;;
27305;SDS011;14792;50.886;6.468;2023-02-22T08:46:28;32.28;;;15.25;;
27305;SDS011;14792;50.886;6.468;2023-02-22T08:49:30;26.62;;;15.78;;
27305;SDS011;14792;50.886;6.468;2023-02-22T08:52:31;26.80;;;13.75;;
27305;SDS011;14792;50.886;6.468;2023-02-22T08:55:34;28.07;;;14.43;;
27305;SDS011;14792;50.886;6.468;2023-02-22T08:58:34;24.92;;;12.95;;
27305;SDS011;14792;50.886;6.468;2023-02-22T09:01:36;25.15;;;14.18;;
27305;SDS011;14792;50.886;6.468;2023-02-22T09:04:37;31.33;;;14.53;;
27305;SDS011;14792;50.886;6.468;2023-02-22T09:07:40;27.45;;;14.78;;
27305;SDS011;14792;50.886;6.468;2023-02-22T09:10:41;38.65;;;14.65;;
27305;SDS011;14792;50.886;6.468;2023-02-22T09:13:42;37.35;;;13.05;;
27305;SDS011;14792;50.886;6.468;2023-02-22T09:16:44;37.05;;;14.03;;
27305;SDS011;14792;50.886;6.468;2023-02-22T09:19:45;45.58;;;15.32;;
27305;SDS011;14792;50.886;6.468;2023-02-22T09:22:47;33.75;;;14.55;;
27305;SDS011;14792;50.886;6.468;2023-02-22T09:25:49;31.57;;;13.50;;
27305;SDS011;14792;50.886;6.468;2023-02-22T09:28:50;30.72;;;13.45;;
27305;SDS011;14792;50.886;6.468;2023-02-22T09:31:52;31.70;;;12.95;;
27305;SDS011;14792;50.886;6.468;2023-02-22T09:34:53;23.47;;;12.73;;
27305;SDS011;14792;50.886;6.468;2023-02-22T09:37:56;26.23;;;13.72;;
27305;SDS011;14792;50.886;6.468;2023-02-22T09:41:07;26.93;;;12.23;;
27305;SDS011;14792;50.886;6.468;2023-02-22T09:44:15;27.73;;;12.10;;
27305;SDS011;14792;50.886;6.468;2023-02-22T09:47:16;24.27;;;11.43;;
27305;SDS011;14792;50.886;6.468;2023-02-22T09:50:17;25.40;;;11.95;;
27305;SDS011;14792;50.886;6.468;2023-02-22T09:56:22;27.85;;;11.33;;
27305;SDS011;14792;50.886;6.468;2023-02-22T09:59:26;31.20;;;12.65;;
27305;SDS011;14792;50.886;6.468;2023-02-22T10:02:29;25.88;;;10.70;;
27305;SDS011;14792;50.886;6.468;2023-02-22T10:05:35;25.12;;;11.05;;
27305;SDS011;14792;50.886;6.468;2023-02-22T10:08:37;25.48;;;11.05;;
27305;SDS011;14792;50.886;6.468;2023-02-22T10:11:48;28.77;;;11.10;;
27305;SDS011;14792;50.886;6.468;2023-02-22T10:25:08;25.62;;;10.58;;
27305;SDS011;14792;50.886;6.468;2023-02-22T10:28:20;28.87;;;11.95;;
27305;SDS011;14792;50.886;6.468;2023-02-22T10:31:30;27.95;;;11.53;;
27305;SDS011;14792;50.886;6.468;2023-02-22T10:34:38;25.85;;;10.93;;
27305;SDS011;14792;50.886;6.468;2023-02-22T10:37:41;25.70;;;11.03;;
27305;SDS011;14792;50.886;6.468;2023-02-22T10:40:45;25.68;;;9.60;;
27305;SDS011;14792;50.886;6.468;2023-02-22T10:43:53;28.62;;;10.88;;
27305;SDS011;14792;50.886;6.468;2023-02-22T10:46:54;29.87;;;10.88;;
27305;SDS011;14792;50.886;6.468;2023-02-22T10:49:56;23.60;;;10.25;;
27305;SDS011;14792;50.886;6.468;2023-02-22T10:52:58;27.17;;;10.30;;
27305;SDS011;14792;50.886;6.468;2023-02-22T10:56:06;29.90;;;10.00;;
27305;SDS011;14792;50.886;6.468;2023-02-22T10:59:09;29.50;;;10.38;;
27305;SDS011;14792;50.886;6.468;2023-02-22T11:05:37;31.02;;;10.60;;
27305;SDS011;14792;50.886;6.468;2023-02-22T11:08:38;27.80;;;9.93;;
27305;SDS011;14792;50.886;6.468;2023-02-22T11:11:41;29.85;;;9.58;;
27305;SDS011;14792;50.886;6.468;2023-02-22T11:14:41;34.60;;;11.12;;
27305;SDS011;14792;50.886;6.468;2023-02-22T11:17:46;32.38;;;11.28;;
27305;SDS011;14792;50.886;6.468;2023-02-22T11:20:47;43.35;;;11.40;;
27305;SDS011;14792;50.886;6.468;2023-02-22T11:23:49;35.88;;;11.05;;
27305;SDS011;14792;50.886;6.468;2023-02-22T11:26:54;36.55;;;10.90;;
27305;SDS011;14792;50.886;6.468;2023-02-22T11:29:52;39.88;;;10.68;;
27305;SDS011;14792;50.886;6.468;2023-02-22T11:32:57;29.90;;;9.63;;
27305;SDS011;14792;50.886;6.468;2023-02-22T11:35:59;33.88;;;10.40;;
27305;SDS011;14792;50.886;6.468;2023-02-22T11:39:00;26.10;;;8.93;;
27305;SDS011;14792;50.886;6.468;2023-02-22T11:45:21;26.68;;;9.38;;
27305;SDS011;14792;50.886;6.468;2023-02-22T11:48:26;30.50;;;8.20;;
27305;SDS011;14792;50.886;6.468;2023-02-22T11:55:12;38.42;;;9.35;;
27305;SDS011;14792;50.886;6.468;2023-02-22T12:04:51;33.23;;;8.95;;
27305;SDS011;14792;50.886;6.468;2023-02-22T12:11:00;29.02;;;8.53;;
27305;SDS011;14792;50.886;6.468;2023-02-22T12:17:45;28.40;;;7.78;;
27305;SDS011;14792;50.886;6.468;2023-02-22T12:20:57;34.65;;;8.33;;
27305;SDS011;14792;50.886;6.468;2023-02-22T12:24:03;23.47;;;7.95;;
27305;SDS011;14792;50.886;6.468;2023-02-22T12:27:06;24.10;;;7.45;;
27305;SDS011;14792;50.886;6.468;2023-02-22T12:30:41;21.10;;;7.70;;
27305;SDS011;14792;50.886;6.468;2023-02-22T12:33:27;14.18;;;6.97;;
27305;SDS011;14792;50.886;6.468;2023-02-22T12:37:11;13.65;;;6.75;;
27305;SDS011;14792;50.886;6.468;2023-02-22T12:39:45;21.97;;;6.75;;
27305;SDS011;14792;50.886;6.468;2023-02-22T12:49:07;15.75;;;7.67;;
27305;SDS011;14792;50.886;6.468;2023-02-22T12:52:15;14.73;;;7.40;;
27305;SDS011;14792;50.886;6.468;2023-02-22T13:05:13;12.43;;;8.10;;
27305;SDS011;14792;50.886;6.468;2023-02-22T13:11:28;10.30;;;7.75;;
27305;SDS011;14792;50.886;6.468;2023-02-22T13:17:46;11.93;;;7.17;;
27305;SDS011;14792;50.886;6.468;2023-02-22T13:23:57;11.15;;;7.87;;
27305;SDS011;14792;50.886;6.468;2023-02-22T13:27:13;12.95;;;7.72;;
27305;SDS011;14792;50.886;6.468;2023-02-22T13:30:21;13.60;;;7.75;;
27305;SDS011;14792;50.886;6.468;2023-02-22T13:36:36;12.50;;;7.67;;
27305;SDS011;14792;50.886;6.468;2023-02-22T13:40:09;12.20;;;8.43;;
27305;SDS011;14792;50.886;6.468;2023-02-22T13:50:00;11.08;;;8.68;;
27305;SDS011;14792;50.886;6.468;2023-02-22T13:53:05;15.93;;;8.85;;
27305;SDS011;14792;50.886;6.468;2023-02-22T13:56:05;14.18;;;9.03;;
27305;SDS011;14792;50.886;6.468;2023-02-22T13:59:20;12.75;;;9.23;;
27305;SDS011;14792;50.886;6.468;2023-02-22T14:02:10;13.75;;;9.45;;
27305;SDS011;14792;50.886;6.468;2023-02-22T14:11:41;13.90;;;9.48;;
27305;SDS011;14792;50.886;6.468;2023-02-22T14:14:57;14.53;;;9.80;;
27305;SDS011;14792;50.886;6.468;2023-02-22T14:18:18;14.50;;;9.90;;
27305;SDS011;14792;50.886;6.468;2023-02-22T14:21:06;15.70;;;9.80;;
27305;SDS011;14792;50.886;6.468;2023-02-22T14:24:13;15.68;;;10.82;;
27305;SDS011;14792;50.886;6.468;2023-02-22T14:27:09;17.27;;;10.70;;
27305;SDS011;14792;50.886;6.468;2023-02-22T14:30:20;16.75;;;11.03;;
27305;SDS011;14792;50.886;6.468;2023-02-22T14:36:52;17.82;;;10.10;;
27305;SDS011;14792;50.886;6.468;2023-02-22T14:40:01;15.80;;;11.00;;
27305;SDS011;14792;50.886;6.468;2023-02-22T14:43:12;16.87;;;11.60;;
27305;SDS011;14792;50.886;6.468;2023-02-22T14:46:14;22.80;;;12.78;;
27305;SDS011;14792;50.886;6.468;2023-02-22T14:49:16;18.17;;;10.72;;
27305;SDS011;14792;50.886;6.468;2023-02-22T14:52:24;14.87;;;9.70;;
27305;SDS011;14792;50.886;6.468;2023-02-22T14:55:26;15.43;;;9.90;;
27305;SDS011;14792;50.886;6.468;2023-02-22T15:01:41;17.05;;;9.30;;
27305;SDS011;14792;50.886;6.468;2023-02-22T15:04:49;15.38;;;9.40;;
27305;SDS011;14792;50.886;6.468;2023-02-22T15:07:51;15.68;;;9.80;;
27305;SDS011;14792;50.886;6.468;2023-02-22T15:10:55;13.60;;;9.48;;
27305;SDS011;14792;50.886;6.468;2023-02-22T15:13:57;13.53;;;9.90;;
27305;SDS011;14792;50.886;6.468;2023-02-22T15:16:58;15.35;;;9.30;;
27305;SDS011;14792;50.886;6.468;2023-02-22T15:19:59;14.60;;;8.90;;
27305;SDS011;14792;50.886;6.468;2023-02-22T15:23:01;22.37;;;10.05;;
27305;SDS011;14792;50.886;6.468;2023-02-22T15:26:03;11.45;;;9.23;;
27305;SDS011;14792;50.886;6.468;2023-02-22T15:32:18;14.05;;;9.10;;
27305;SDS011;14792;50.886;6.468;2023-02-22T15:38:28;17.00;;;9.93;;
27305;SDS011;14792;50.886;6.468;2023-02-22T15:41:29;11.15;;;8.85;;
27305;SDS011;14792;50.886;6.468;2023-02-22T15:44:40;16.17;;;9.60;;
27305;SDS011;14792;50.886;6.468;2023-02-22T15:47:37;18.27;;;11.20;;
27305;SDS011;14792;50.886;6.468;2023-02-22T15:50:39;12.90;;;10.30;;
27305;SDS011;14792;50.886;6.468;2023-02-22T15:53:44;14.20;;;10.43;;
27305;SDS011;14792;50.886;6.468;2023-02-22T15:56:48;15.53;;;10.68;;
27305;SDS011;14792;50.886;6.468;2023-02-22T15:59:50;14.45;;;10.48;;
27305;SDS011;14792;50.886;6.468;2023-02-22T16:02:55;15.00;;;10.20;;
27305;SDS011;14792;50.886;6.468;2023-02-22T16:05:55;15.55;;;10.15;;
27305;SDS011;14792;50.886;6.468;2023-02-22T16:08:57;13.95;;;10.78;;
27305;SDS011;14792;50.886;6.468;2023-02-22T16:12:08;15.75;;;10.63;;
27305;SDS011;14792;50.886;6.468;2023-02-22T16:15:20;17.32;;;11.25;;
27305;SDS011;14792;50.886;6.468;2023-02-22T16:18:26;15.40;;;10.90;;
27305;SDS011;14792;50.886;6.468;2023-02-22T16:21:26;18.27;;;11.30;;
27305;SDS011;14792;50.886;6.468;2023-02-22T16:24:29;19.77;;;12.18;;
27305;SDS011;14792;50.886;6.468;2023-02-22T16:27:32;16.02;;;12.15;;
27305;SDS011;14792;50.886;6.468;2023-02-22T16:30:37;15.53;;;11.70;;
27305;SDS011;14792;50.886;6.468;2023-02-22T16:33:38;19.85;;;12.88;;
27305;SDS011;14792;50.886;6.468;2023-02-22T16:36:42;16.65;;;12.28;;
27305;SDS011;14792;50.886;6.468;2023-02-22T16:39:44;16.25;;;12.18;;
27305;SDS011;14792;50.886;6.468;2023-02-22T16:42:46;18.77;;;12.30;;
27305;SDS011;14792;50.886;6.468;2023-02-22T16:45:47;19.23;;;12.47;;
27305;SDS011;14792;50.886;6.468;2023-02-22T16:48:49;19.40;;;12.80;;
27305;SDS011;14792;50.886;6.468;2023-02-22T16:51:59;23.52;;;14.18;;
27305;SDS011;14792;50.886;6.468;2023-02-22T16:55:01;20.12;;;13.83;;
27305;SDS011;14792;50.886;6.468;2023-02-22T16:58:02;22.35;;;15.23;;
27305;SDS011;14792;50.886;6.468;2023-02-22T17:01:04;21.85;;;15.05;;
27305;SDS011;14792;50.886;6.468;2023-02-22T17:04:13;22.90;;;14.95;;
27305;SDS011;14792;50.886;6.468;2023-02-22T17:07:14;22.32;;;14.50;;
27305;SDS011;14792;50.886;6.468;2023-02-22T17:10:15;21.57;;;13.78;;
27305;SDS011;14792;50.886;6.468;2023-02-22T17:13:19;22.87;;;13.78;;
27305;SDS011;14792;50.886;6.468;2023-02-22T17:16:20;18.42;;;14.23;;
27305;SDS011;14792;50.886;6.468;2023-02-22T17:19:22;23.40;;;14.58;;
27305;SDS011;14792;50.886;6.468;2023-02-22T17:22:24;22.40;;;15.68;;
27305;SDS011;14792;50.886;6.468;2023-02-22T17:25:30;22.98;;;15.85;;
27305;SDS011;14792;50.886;6.468;2023-02-22T17:28:30;23.50;;;16.30;;
27305;SDS011;14792;50.886;6.468;2023-02-22T17:31:31;27.45;;;18.00;;
27305;SDS011;14792;50.886;6.468;2023-02-22T17:34:33;27.42;;;18.52;;
27305;SDS011;14792;50.886;6.468;2023-02-22T17:37:35;24.15;;;17.98;;
27305;SDS011;14792;50.886;6.468;2023-02-22T17:40:36;25.35;;;17.55;;
27305;SDS011;14792;50.886;6.468;2023-02-22T17:43:38;22.98;;;16.80;;
27305;SDS011;14792;50.886;6.468;2023-02-22T17:46:39;26.45;;;17.20;;
27305;SDS011;14792;50.886;6.468;2023-02-22T17:49:41;26.90;;;16.55;;
27305;SDS011;14792;50.886;6.468;2023-02-22T17:52:43;25.65;;;17.57;;
27305;SDS011;14792;50.886;6.468;2023-02-22T17:55:44;23.45;;;16.42;;
27305;SDS011;14792;50.886;6.468;2023-02-22T17:58:49;27.42;;;18.17;;
27305;SDS011;14792;50.886;6.468;2023-02-22T18:01:47;27.67;;;18.50;;
27305;SDS011;14792;50.886;6.468;2023-02-22T18:04:49;25.88;;;18.07;;
27305;SDS011;14792;50.886;6.468;2023-02-22T18:07:50;28.12;;;18.48;;
27305;SDS011;14792;50.886;6.468;2023-02-22T18:10:52;28.02;;;18.60;;
27305;SDS011;14792;50.886;6.468;2023-02-22T18:13:54;31.95;;;20.48;;
27305;SDS011;14792;50.886;6.468;2023-02-22T18:16:55;33.95;;;20.88;;
27305;SDS011;14792;50.886;6.468;2023-02-22T18:19:57;47.10;;;25.45;;
27305;SDS011;14792;50.886;6.468;2023-02-22T18:22:58;33.85;;;21.95;;
27305;SDS011;14792;50.886;6.468;2023-02-22T18:26:00;33.53;;;22.75;;
27305;SDS011;14792;50.886;6.468;2023-02-22T18:29:02;33.73;;;23.12;;
27305;SDS011;14792;50.886;6.468;2023-02-22T18:32:03;35.30;;;22.82;;
27305;SDS011;14792;50.886;6.468;2023-02-22T18:35:05;36.90;;;25.10;;
27305;SDS011;14792;50.886;6.468;2023-02-22T18:38:06;36.98;;;24.90;;
27305;SDS011;14792;50.886;6.468;2023-02-22T18:41:12;37.30;;;26.73;;
27305;SDS011;14792;50.886;6.468;2023-02-22T18:44:16;34.48;;;26.85;;
27305;SDS011;14792;50.886;6.468;2023-02-22T18:47:19;38.33;;;27.65;;
27305;SDS011;14792;50.886;6.468;2023-02-22T18:50:20;38.35;;;27.62;;
27305;SDS011;14792;50.886;6.468;2023-02-22T18:53:21;46.95;;;30.15;;
27305;SDS011;14792;50.886;6.468;2023-02-22T18:56:23;41.65;;;29.05;;
27305;SDS011;14792;50.886;6.468;2023-02-22T18:59:24;39.33;;;29.75;;
27305;SDS011;14792;50.886;6.468;2023-02-22T19:02:26;38.50;;;28.83;;
27305;SDS011;14792;50.886;6.468;2023-02-22T19:05:28;45.85;;;32.03;;
27305;SDS011;14792;50.886;6.468;2023-02-22T19:08:29;47.00;;;32.03;;
27305;SDS011;14792;50.886;6.468;2023-02-22T19:11:31;44.85;;;33.35;;
27305;SDS011;14792;50.886;6.468;2023-02-22T19:14:32;46.95;;;32.78;;
27305;SDS011;14792;50.886;6.468;2023-02-22T19:17:34;43.85;;;33.58;;
27305;SDS011;14792;50.886;6.468;2023-02-22T19:20:36;48.25;;;33.98;;
27305;SDS011;14792;50.886;6.468;2023-02-22T19:23:37;52.65;;;36.53;;
27305;SDS011;14792;50.886;6.468;2023-02-22T19:26:41;54.65;;;37.00;;
27305;SDS011;14792;50.886;6.468;2023-02-22T19:29:43;55.73;;;37.67;;
27305;SDS011;14792;50.886;6.468;2023-02-22T19:32:44;50.90;;;35.13;;
27305;SDS011;14792;50.886;6.468;2023-02-22T19:35:46;46.70;;;35.75;;